createdAt,value
2017-09-29T00:00:08.473Z,16.90
2017-09-29T00:02:37.004Z,16.90
2017-09-29T00:05:04.633Z,16.80
2017-09-29T00:07:32.199Z,16.80
2017-09-29T00:09:59.788Z,16.80
2017-09-29T00:12:27.366Z,16.90
2017-09-29T00:14:54.953Z,16.80
2017-09-29T00:17:23.275Z,16.80
2017-09-29T00:19:50.862Z,16.80
2017-09-29T00:22:18.437Z,16.70
2017-09-29T00:24:46.910Z,16.70
2017-09-29T00:27:15.304Z,16.60
2017-09-29T00:29:44.556Z,16.70
2017-09-29T00:32:12.194Z,16.70
2017-09-29T00:34:39.781Z,16.70
2017-09-29T00:37:07.373Z,16.70
2017-09-29T00:39:35.009Z,16.70
2017-09-29T00:42:02.633Z,16.60
2017-09-29T00:44:30.296Z,16.60
2017-09-29T00:46:57.887Z,16.70
2017-09-29T00:49:25.517Z,16.70
2017-09-29T00:51:53.190Z,16.70
2017-09-29T00:54:20.805Z,16.70
2017-09-29T00:56:48.395Z,16.70
2017-09-29T00:59:16.013Z,16.70
2017-09-29T01:01:43.961Z,16.60
2017-09-29T01:04:11.553Z,16.60
2017-09-29T01:06:39.167Z,16.70
2017-09-29T01:09:06.882Z,16.70
2017-09-29T01:11:35.245Z,16.50
2017-09-29T01:14:02.829Z,16.50
2017-09-29T01:16:31.208Z,16.60
2017-09-29T01:18:59.617Z,16.60
2017-09-29T01:21:27.875Z,16.60
2017-09-29T01:23:57.021Z,16.60
2017-09-29T01:26:24.654Z,16.60
2017-09-29T01:28:52.299Z,16.60
2017-09-29T01:31:19.917Z,16.60
2017-09-29T01:33:47.700Z,16.50
2017-09-29T01:36:15.290Z,16.50
2017-09-29T01:38:42.897Z,16.50
2017-09-29T01:41:11.425Z,16.50
2017-09-29T01:43:39.028Z,16.50
2017-09-29T01:46:06.633Z,16.60
2017-09-29T01:48:35.035Z,16.60
2017-09-29T01:51:02.650Z,16.50
2017-09-29T01:53:30.255Z,16.60
2017-09-29T01:55:57.843Z,16.60
2017-09-29T01:58:25.447Z,16.60
2017-09-29T02:00:53.799Z,16.70
2017-09-29T02:03:21.733Z,16.70
2017-09-29T02:05:49.332Z,16.80
2017-09-29T02:08:16.928Z,16.70
2017-09-29T02:10:45.316Z,16.80
2017-09-29T02:13:12.982Z,16.80
2017-09-29T02:15:40.603Z,16.70
2017-09-29T02:18:08.256Z,16.80
2017-09-29T02:20:36.644Z,16.70
2017-09-29T02:23:04.281Z,16.70
2017-09-29T02:25:31.926Z,16.80
2017-09-29T02:27:59.552Z,16.80
2017-09-29T02:30:27.944Z,16.80
2017-09-29T02:32:55.565Z,16.80
2017-09-29T02:35:23.165Z,16.80
2017-09-29T02:37:50.757Z,16.80
2017-09-29T02:40:18.380Z,16.70
2017-09-29T02:42:45.980Z,16.70
2017-09-29T02:45:13.591Z,16.80
2017-09-29T02:47:41.188Z,16.80
2017-09-29T02:50:08.767Z,16.80
2017-09-29T02:52:36.388Z,16.90
2017-09-29T02:55:04.484Z,16.90
2017-09-29T02:57:33.409Z,16.90
2017-09-29T03:00:02.224Z,16.90
2017-09-29T03:02:32.749Z,16.90
2017-09-29T03:05:03.447Z,17.00
2017-09-29T03:07:31.830Z,17.00
2017-09-29T03:09:59.458Z,17.00
2017-09-29T03:12:27.055Z,17.00
2017-09-29T03:14:54.696Z,17.00
2017-09-29T03:17:22.312Z,17.00
2017-09-29T03:19:50.678Z,16.90
2017-09-29T03:22:19.068Z,16.90
2017-09-29T03:24:47.431Z,16.90
2017-09-29T03:27:15.059Z,16.80
2017-09-29T03:29:42.688Z,16.90
2017-09-29T03:32:10.246Z,16.90
2017-09-29T03:34:37.821Z,16.80
2017-09-29T03:37:05.438Z,16.90
2017-09-29T03:39:33.006Z,16.80
2017-09-29T03:42:00.592Z,16.80
2017-09-29T03:44:28.176Z,16.80
2017-09-29T03:46:55.753Z,16.80
2017-09-29T03:49:23.341Z,16.90
2017-09-29T03:51:52.426Z,16.90
2017-09-29T03:54:20.520Z,16.90
2017-09-29T03:56:50.250Z,17.00
2017-09-29T03:59:19.220Z,17.00
2017-09-29T04:01:47.591Z,17.10
2017-09-29T04:04:15.944Z,17.10
2017-09-29T04:06:43.576Z,17.10
2017-09-29T04:09:11.141Z,17.20
2017-09-29T04:11:38.745Z,17.20
2017-09-29T04:14:06.400Z,17.20
2017-09-29T04:16:34.000Z,17.20
2017-09-29T04:19:01.602Z,17.20
2017-09-29T04:21:29.208Z,17.20
2017-09-29T04:23:57.576Z,17.30
2017-09-29T04:26:25.954Z,17.30
2017-09-29T04:28:54.312Z,17.20
2017-09-29T04:31:21.873Z,17.20
2017-09-29T04:33:49.802Z,17.30
2017-09-29T04:36:17.380Z,17.30
2017-09-29T04:38:44.970Z,17.30
2017-09-29T04:41:12.599Z,17.20
2017-09-29T04:43:40.211Z,17.30
2017-09-29T04:46:08.559Z,17.20
2017-09-29T04:48:36.125Z,17.20
2017-09-29T04:51:03.732Z,17.20
2017-09-29T04:53:31.316Z,17.10
2017-09-29T04:55:58.905Z,17.10
2017-09-29T04:58:26.509Z,17.20
2017-09-29T05:00:54.201Z,17.20
2017-09-29T05:03:21.786Z,17.10
2017-09-29T05:05:49.423Z,17.10
2017-09-29T05:08:17.059Z,17.20
2017-09-29T05:10:44.610Z,17.20
2017-09-29T05:13:13.172Z,17.20
2017-09-29T05:15:41.809Z,17.20
2017-09-29T05:18:09.407Z,17.20
2017-09-29T05:20:37.832Z,17.10
2017-09-29T05:23:05.410Z,17.10
2017-09-29T05:25:32.981Z,17.20
2017-09-29T05:28:00.592Z,17.20
2017-09-29T05:30:28.257Z,17.20
2017-09-29T05:32:55.826Z,17.20
2017-09-29T05:35:23.450Z,17.20
2017-09-29T05:37:51.833Z,17.10
2017-09-29T05:40:19.474Z,17.10
2017-09-29T05:42:47.071Z,17.20
2017-09-29T05:45:15.395Z,17.30
2017-09-29T05:47:42.984Z,17.20
2017-09-29T05:50:10.599Z,17.30
2017-09-29T05:52:38.188Z,17.20
2017-09-29T05:55:05.759Z,17.10
2017-09-29T05:57:33.394Z,17.20
2017-09-29T06:00:00.969Z,17.20
2017-09-29T06:02:28.582Z,17.10
2017-09-29T06:04:56.135Z,17.10
2017-09-29T06:07:23.707Z,17.20
2017-09-29T06:09:52.240Z,17.10
2017-09-29T06:12:19.902Z,17.10
2017-09-29T06:14:47.531Z,17.10
2017-09-29T06:17:15.131Z,17.20
2017-09-29T06:19:43.477Z,17.20
2017-09-29T06:22:11.058Z,17.20
2017-09-29T06:24:38.633Z,17.30
2017-09-29T06:27:06.978Z,17.40
2017-09-29T06:29:35.390Z,17.50
2017-09-29T06:32:03.001Z,17.50
2017-09-29T06:34:30.602Z,17.50
2017-09-29T06:36:58.249Z,17.50
2017-09-29T06:39:25.862Z,17.50
2017-09-29T06:41:53.484Z,17.50
2017-09-29T06:44:21.051Z,17.50
2017-09-29T06:46:48.666Z,17.60
2017-09-29T06:49:16.286Z,17.60
2017-09-29T06:51:44.654Z,17.60
2017-09-29T06:54:13.849Z,17.60
2017-09-29T06:56:41.800Z,17.60
2017-09-29T06:59:09.378Z,17.70
2017-09-29T07:01:37.112Z,17.80
2017-09-29T07:04:04.724Z,17.80
2017-09-29T07:06:33.103Z,17.90
2017-09-29T07:09:01.402Z,17.90
2017-09-29T07:11:29.040Z,17.90
2017-09-29T07:13:57.459Z,17.90
2017-09-29T07:16:25.065Z,17.90
2017-09-29T07:18:53.915Z,18.00
2017-09-29T07:21:21.572Z,18.00
2017-09-29T07:23:49.261Z,18.10
2017-09-29T07:26:18.750Z,18.10
2017-09-29T07:28:47.529Z,18.10
2017-09-29T07:31:16.867Z,18.10
2017-09-29T07:33:44.477Z,18.10
2017-09-29T07:36:12.096Z,18.20
2017-09-29T07:38:39.706Z,18.30
2017-09-29T07:41:08.274Z,18.30
2017-09-29T07:43:35.903Z,18.30
2017-09-29T07:46:03.507Z,18.30
2017-09-29T07:48:31.269Z,18.40
2017-09-29T07:50:58.893Z,18.40
2017-09-29T07:53:26.502Z,18.50
2017-09-29T07:55:54.133Z,18.50
2017-09-29T07:58:21.725Z,18.60
2017-09-29T08:00:49.331Z,18.50
2017-09-29T08:03:17.728Z,18.60
2017-09-29T08:05:46.071Z,18.60
2017-09-29T08:08:13.639Z,18.60
2017-09-29T08:10:41.242Z,18.60
2017-09-29T08:13:08.819Z,18.60
2017-09-29T08:15:36.812Z,18.70
2017-09-29T08:18:05.394Z,18.70
2017-09-29T08:20:33.017Z,18.80
2017-09-29T08:23:00.996Z,18.70
2017-09-29T08:25:28.558Z,18.80
2017-09-29T08:27:56.137Z,18.90
2017-09-29T08:30:24.465Z,18.90
2017-09-29T08:32:52.867Z,18.90
2017-09-29T08:35:20.742Z,18.90
2017-09-29T08:37:48.313Z,19.00
2017-09-29T08:40:15.915Z,19.10
2017-09-29T08:42:43.538Z,19.20
2017-09-29T08:45:11.149Z,19.20
2017-09-29T08:47:38.761Z,19.20
2017-09-29T08:50:06.419Z,19.30
2017-09-29T08:52:33.987Z,19.20
2017-09-29T08:55:01.576Z,19.30
2017-09-29T08:57:29.330Z,19.20
2017-09-29T08:59:56.912Z,19.30
2017-09-29T09:02:24.485Z,19.30
2017-09-29T09:04:52.100Z,19.50
2017-09-29T09:07:19.703Z,19.60
2017-09-29T09:09:48.118Z,20.00
2017-09-29T09:12:15.690Z,20.00
2017-09-29T09:14:43.535Z,20.10
2017-09-29T09:17:11.148Z,20.40
2017-09-29T09:19:39.509Z,20.70
2017-09-29T09:22:07.073Z,20.60
2017-09-29T09:24:34.680Z,20.70
2017-09-29T09:27:02.290Z,20.70
2017-09-29T09:29:29.857Z,20.70
2017-09-29T09:31:57.487Z,20.90
2017-09-29T09:34:25.098Z,21.00
2017-09-29T09:36:53.019Z,21.00
2017-09-29T09:39:20.658Z,21.10
2017-09-29T09:41:48.236Z,21.00
2017-09-29T09:44:15.852Z,21.00
2017-09-29T09:46:44.229Z,21.10
2017-09-29T09:49:11.810Z,21.00
2017-09-29T09:51:39.400Z,21.00
2017-09-29T09:54:07.037Z,21.10
2017-09-29T09:56:34.593Z,21.10
2017-09-29T09:59:02.196Z,21.00
2017-09-29T10:01:30.254Z,21.00
2017-09-29T10:03:57.864Z,21.20
2017-09-29T10:06:26.207Z,21.10
2017-09-29T10:08:53.819Z,21.10
2017-09-29T10:11:22.171Z,20.70
2017-09-29T10:13:49.780Z,20.70
2017-09-29T10:16:17.375Z,20.70
2017-09-29T10:18:45.016Z,20.80
2017-09-29T10:21:12.602Z,20.90
2017-09-29T10:23:40.230Z,21.00
2017-09-29T10:26:07.804Z,21.20
2017-09-29T10:28:35.408Z,21.30
2017-09-29T10:31:03.822Z,21.40
2017-09-29T10:33:31.487Z,21.40
2017-09-29T10:35:59.087Z,21.50
2017-09-29T10:38:26.720Z,21.60
2017-09-29T10:40:54.312Z,21.50
2017-09-29T10:43:21.917Z,21.30
2017-09-29T10:45:49.498Z,21.30
2017-09-29T10:48:17.107Z,21.60
2017-09-29T10:50:45.458Z,21.80
2017-09-29T10:53:13.102Z,21.70
2017-09-29T10:55:40.677Z,21.80
2017-09-29T10:58:08.429Z,21.90
2017-09-29T11:00:36.065Z,22.00
2017-09-29T11:03:03.701Z,21.80
2017-09-29T11:05:32.448Z,21.80
2017-09-29T11:08:00.187Z,21.80
2017-09-29T11:10:27.773Z,21.70
2017-09-29T11:12:55.362Z,21.70
2017-09-29T11:15:22.970Z,21.70
2017-09-29T11:17:50.632Z,21.90
2017-09-29T11:20:18.212Z,22.10
2017-09-29T11:22:45.822Z,22.20
2017-09-29T11:25:14.152Z,22.20
2017-09-29T11:27:41.782Z,22.20
2017-09-29T11:30:09.475Z,22.00
2017-09-29T11:32:37.079Z,21.90
2017-09-29T11:35:05.570Z,22.20
2017-09-29T11:37:33.210Z,22.20
2017-09-29T11:40:01.005Z,22.20
2017-09-29T11:42:28.709Z,22.10
2017-09-29T11:44:56.289Z,22.10
2017-09-29T11:47:23.865Z,21.90
2017-09-29T11:49:52.856Z,22.00
2017-09-29T11:52:21.245Z,22.00
2017-09-29T11:54:48.826Z,21.90
2017-09-29T11:57:16.411Z,22.00
2017-09-29T11:59:44.045Z,22.00
2017-09-29T12:02:11.650Z,22.10
2017-09-29T12:04:39.234Z,22.00
2017-09-29T12:07:07.723Z,22.10
2017-09-29T12:09:36.102Z,22.20
2017-09-29T12:12:04.580Z,22.20
2017-09-29T12:14:32.926Z,22.20
2017-09-29T12:17:00.512Z,22.20
2017-09-29T12:19:28.118Z,22.30
2017-09-29T12:21:55.710Z,22.30
2017-09-29T12:24:23.331Z,22.30
2017-09-29T12:26:50.925Z,22.30
2017-09-29T12:29:18.534Z,22.20
2017-09-29T12:31:46.967Z,22.30
2017-09-29T12:34:14.570Z,22.30
2017-09-29T12:36:43.084Z,22.50
2017-09-29T12:39:10.729Z,22.50
2017-09-29T12:41:38.299Z,22.70
2017-09-29T12:44:05.890Z,22.80
2017-09-29T12:46:33.524Z,22.90
2017-09-29T12:49:01.139Z,23.00
2017-09-29T12:51:28.712Z,22.90
2017-09-29T12:53:56.343Z,23.00
2017-09-29T12:56:23.940Z,23.10
2017-09-29T12:58:51.594Z,23.20
2017-09-29T13:01:19.233Z,23.20
2017-09-29T13:03:46.829Z,23.20
2017-09-29T13:06:14.482Z,23.30
2017-09-29T13:08:42.165Z,23.30
2017-09-29T13:11:09.786Z,23.30
2017-09-29T13:13:37.463Z,23.30
2017-09-29T13:16:05.874Z,23.20
2017-09-29T13:18:33.653Z,23.20
2017-09-29T13:21:01.233Z,23.00
2017-09-29T13:23:28.898Z,22.90
2017-09-29T13:25:56.533Z,23.00
2017-09-29T13:28:24.198Z,23.10
2017-09-29T13:30:52.455Z,23.00
2017-09-29T13:33:20.068Z,23.10
2017-09-29T13:35:48.109Z,23.20
2017-09-29T13:38:17.105Z,23.10
2017-09-29T13:40:44.710Z,23.00
2017-09-29T13:43:13.550Z,23.20
2017-09-29T13:45:41.541Z,23.20
2017-09-29T13:48:11.088Z,23.20
2017-09-29T13:50:40.104Z,23.30
2017-09-29T13:53:08.002Z,23.30
2017-09-29T13:55:36.041Z,23.40
2017-09-29T13:58:03.813Z,23.50
2017-09-29T14:00:31.477Z,23.60
2017-09-29T14:02:59.209Z,23.70
2017-09-29T14:05:26.984Z,23.60
2017-09-29T14:07:54.668Z,23.70
2017-09-29T14:10:22.482Z,23.60
2017-09-29T14:12:50.160Z,23.60
2017-09-29T14:15:18.708Z,23.70
2017-09-29T14:17:46.373Z,23.60
2017-09-29T14:20:14.242Z,23.50
2017-09-29T14:22:42.302Z,23.40
2017-09-29T14:25:10.030Z,23.30
2017-09-29T14:27:37.729Z,23.40
2017-09-29T14:30:05.657Z,23.30
2017-09-29T14:32:33.578Z,23.30
2017-09-29T14:35:02.061Z,23.20
2017-09-29T14:37:30.706Z,23.40
2017-09-29T14:39:58.811Z,23.30
2017-09-29T14:42:26.572Z,23.40
2017-09-29T14:44:54.271Z,23.40
2017-09-29T14:47:22.235Z,23.40
2017-09-29T14:49:50.251Z,23.40
2017-09-29T14:52:17.974Z,23.30
2017-09-29T14:54:45.792Z,23.20
2017-09-29T14:57:13.562Z,23.30
2017-09-29T14:59:41.719Z,23.30
2017-09-29T15:02:10.397Z,23.40
2017-09-29T15:04:38.016Z,23.40
2017-09-29T15:07:05.601Z,23.40
2017-09-29T15:09:33.178Z,23.30
2017-09-29T15:12:00.784Z,23.40
2017-09-29T15:14:28.334Z,23.30
2017-09-29T15:16:55.896Z,23.30
2017-09-29T15:19:24.077Z,23.30
2017-09-29T15:21:51.683Z,23.30
2017-09-29T15:24:19.296Z,23.40
2017-09-29T15:26:46.911Z,23.30
2017-09-29T15:29:14.483Z,23.30
2017-09-29T15:31:43.506Z,23.30
2017-09-29T15:34:11.089Z,23.20
2017-09-29T15:36:38.693Z,23.20
2017-09-29T15:39:06.361Z,23.10
2017-09-29T15:41:33.969Z,23.10
2017-09-29T15:44:01.620Z,23.00
2017-09-29T15:46:29.247Z,23.00
2017-09-29T15:48:56.860Z,23.00
2017-09-29T15:51:24.900Z,23.00
2017-09-29T15:53:52.485Z,23.00
2017-09-29T15:56:20.139Z,22.90
2017-09-29T15:58:47.712Z,22.90
2017-09-29T16:01:15.268Z,22.80
2017-09-29T16:03:43.679Z,22.70
2017-09-29T16:06:11.364Z,22.70
2017-09-29T16:08:38.976Z,22.60
2017-09-29T16:11:06.557Z,22.50
2017-09-29T16:13:34.909Z,22.30
2017-09-29T16:16:02.508Z,22.30
2017-09-29T16:18:30.132Z,22.30
2017-09-29T16:20:58.529Z,22.20
2017-09-29T16:23:27.134Z,22.10
2017-09-29T16:25:54.997Z,22.10
2017-09-29T16:28:22.600Z,22.00
2017-09-29T16:30:50.232Z,22.00
2017-09-29T16:33:17.869Z,22.00
2017-09-29T16:35:45.461Z,21.90
2017-09-29T16:38:13.062Z,21.90
2017-09-29T16:40:40.697Z,21.90
2017-09-29T16:43:08.298Z,21.80
2017-09-29T16:45:35.911Z,21.80
2017-09-29T16:48:03.583Z,21.70
2017-09-29T16:50:31.184Z,21.70
2017-09-29T16:52:58.840Z,21.60
2017-09-29T16:55:26.395Z,21.50
2017-09-29T16:57:53.987Z,21.50
2017-09-29T17:00:21.562Z,21.40
2017-09-29T17:02:49.135Z,21.20
2017-09-29T17:05:16.720Z,21.10
2017-09-29T17:07:44.395Z,21.10
2017-09-29T17:10:11.960Z,20.90
2017-09-29T17:12:39.610Z,20.90
2017-09-29T17:15:07.198Z,20.80
2017-09-29T17:17:35.568Z,20.70
2017-09-29T17:20:03.236Z,20.70
2017-09-29T17:22:31.649Z,20.70
2017-09-29T17:24:59.273Z,20.60
2017-09-29T17:27:27.665Z,20.50
2017-09-29T17:29:56.017Z,20.50
2017-09-29T17:32:23.599Z,20.50
2017-09-29T17:34:52.697Z,20.40
2017-09-29T17:37:20.264Z,20.40
2017-09-29T17:39:48.650Z,20.30
2017-09-29T17:42:16.235Z,20.20
2017-09-29T17:44:43.907Z,20.20
2017-09-29T17:47:11.485Z,20.10
2017-09-29T17:49:39.084Z,20.00
2017-09-29T17:52:06.666Z,20.00
2017-09-29T17:54:34.270Z,19.90
2017-09-29T17:57:02.345Z,19.90
2017-09-29T17:59:29.897Z,19.80
2017-09-29T18:01:57.568Z,19.80
2017-09-29T18:04:25.136Z,19.80
2017-09-29T18:06:52.730Z,19.80
2017-09-29T18:09:20.405Z,19.80
2017-09-29T18:11:48.040Z,19.70
2017-09-29T18:14:15.662Z,19.70
2017-09-29T18:16:43.262Z,19.70
2017-09-29T18:19:13.125Z,19.60
2017-09-29T18:21:40.715Z,19.60
2017-09-29T18:24:09.089Z,19.60
2017-09-29T18:26:36.668Z,19.50
2017-09-29T18:29:05.054Z,19.60
2017-09-29T18:31:33.424Z,19.60
2017-09-29T18:34:01.991Z,19.50
2017-09-29T18:36:29.585Z,19.50
2017-09-29T18:38:57.164Z,19.50
2017-09-29T18:41:29.048Z,19.50
2017-09-29T18:43:56.713Z,19.40
2017-09-29T18:46:39.296Z,19.40
2017-09-29T18:49:07.691Z,19.40
2017-09-29T18:51:35.348Z,19.40
2017-09-29T18:54:02.947Z,19.30
2017-09-29T18:56:30.561Z,19.30
2017-09-29T18:58:58.132Z,19.30
2017-09-29T19:01:25.708Z,19.30
2017-09-29T19:03:54.148Z,19.30
2017-09-29T19:06:21.797Z,19.30
2017-09-29T19:08:50.165Z,19.30
2017-09-29T19:11:18.565Z,19.20
2017-09-29T19:13:46.167Z,19.20
2017-09-29T19:16:13.805Z,19.20
2017-09-29T19:18:41.500Z,19.10
2017-09-29T19:21:09.885Z,19.20
2017-09-29T19:23:37.460Z,19.20
2017-09-29T19:26:05.061Z,19.20
2017-09-29T19:28:32.652Z,19.20
2017-09-29T19:31:00.276Z,19.20
2017-09-29T19:33:27.862Z,19.20
2017-09-29T19:35:55.432Z,19.20
2017-09-29T19:38:23.127Z,19.20
2017-09-29T19:40:51.479Z,19.30
2017-09-29T19:43:19.070Z,19.30
2017-09-29T19:45:47.443Z,19.50
2017-09-29T19:48:15.759Z,19.50
2017-09-29T19:50:43.334Z,19.50
2017-09-29T19:53:10.954Z,19.60
2017-09-29T19:55:39.276Z,19.60
2017-09-29T19:58:06.811Z,19.60
2017-09-29T20:00:34.432Z,19.60
2017-09-29T20:03:02.091Z,19.60
2017-09-29T20:05:29.689Z,19.60
2017-09-29T20:07:57.332Z,19.50
2017-09-29T20:10:25.686Z,19.50
2017-09-29T20:12:53.257Z,19.50
2017-09-29T20:15:22.528Z,19.40
2017-09-29T20:17:50.083Z,19.40
2017-09-29T20:20:17.675Z,19.40
2017-09-29T20:22:46.072Z,19.40
2017-09-29T20:25:13.681Z,19.30
2017-09-29T20:27:41.261Z,19.30
2017-09-29T20:30:08.930Z,19.30
2017-09-29T20:32:37.285Z,19.30
2017-09-29T20:35:05.630Z,19.30
2017-09-29T20:37:33.238Z,19.30
2017-09-29T20:40:00.837Z,19.30
2017-09-29T20:42:28.462Z,19.30
2017-09-29T20:44:56.053Z,19.30
2017-09-29T20:47:24.413Z,19.30
2017-09-29T20:49:52.782Z,19.30
2017-09-29T20:52:20.336Z,19.30
2017-09-29T20:54:47.942Z,19.20
2017-09-29T20:57:15.527Z,19.20
2017-09-29T20:59:43.687Z,19.20
2017-09-29T21:02:11.308Z,19.20
2017-09-29T21:04:38.931Z,19.30
2017-09-29T21:07:06.499Z,19.20
2017-09-29T21:09:34.091Z,19.20
2017-09-29T21:12:01.700Z,19.20
2017-09-29T21:14:29.292Z,19.20
2017-09-29T21:16:57.651Z,19.10
2017-09-29T21:19:25.256Z,19.10
2017-09-29T21:21:53.576Z,19.20
2017-09-29T21:24:21.151Z,19.10
2017-09-29T21:26:48.761Z,19.10
2017-09-29T21:29:17.100Z,19.00
2017-09-29T21:31:44.721Z,19.00
2017-09-29T21:34:12.766Z,18.90
2017-09-29T21:36:41.109Z,18.90
2017-09-29T21:39:08.738Z,18.90
2017-09-29T21:41:36.584Z,18.90
2017-09-29T21:44:04.909Z,18.80
2017-09-29T21:46:32.524Z,18.80
2017-09-29T21:49:00.123Z,18.90
2017-09-29T21:51:27.719Z,18.80
2017-09-29T21:53:55.316Z,18.80
2017-09-29T21:56:22.930Z,18.80
2017-09-29T21:58:50.519Z,18.80
2017-09-29T22:01:18.906Z,18.80
2017-09-29T22:03:46.513Z,18.80
2017-09-29T22:06:14.126Z,18.80
2017-09-29T22:08:41.785Z,18.80
2017-09-29T22:11:10.278Z,18.90
2017-09-29T22:13:37.866Z,18.90
2017-09-29T22:16:05.442Z,18.90
2017-09-29T22:18:33.088Z,18.90
2017-09-29T22:21:00.654Z,18.90
2017-09-29T22:23:28.217Z,18.90
2017-09-29T22:25:55.850Z,19.00
2017-09-29T22:28:23.411Z,19.00
2017-09-29T22:30:50.999Z,19.10
2017-09-29T22:33:18.570Z,19.00
2017-09-29T22:35:46.215Z,19.00
2017-09-29T22:38:13.872Z,19.00
2017-09-29T22:40:41.554Z,19.10
2017-09-29T22:43:09.893Z,19.00
2017-09-29T22:45:37.453Z,19.00
2017-09-29T22:48:05.055Z,19.10
2017-09-29T22:50:33.419Z,19.00
2017-09-29T22:53:01.001Z,19.00
2017-09-29T22:55:28.609Z,19.10
2017-09-29T22:57:56.170Z,19.00
2017-09-29T23:00:23.729Z,19.00
2017-09-29T23:02:51.316Z,19.10
2017-09-29T23:05:18.876Z,19.10
2017-09-29T23:07:46.866Z,19.10
2017-09-29T23:10:14.486Z,19.10
2017-09-29T23:12:42.076Z,19.10
2017-09-29T23:15:10.424Z,19.10
2017-09-29T23:17:38.629Z,19.00
2017-09-29T23:20:06.997Z,19.10
2017-09-29T23:22:34.578Z,19.10
2017-09-29T23:25:02.125Z,19.10
2017-09-29T23:27:30.465Z,19.10
2017-09-29T23:29:58.065Z,19.10
2017-09-29T23:32:26.396Z,19.10
2017-09-29T23:34:53.951Z,19.10
2017-09-29T23:37:21.569Z,19.10
2017-09-29T23:39:49.886Z,19.10
2017-09-29T23:42:17.471Z,19.10
2017-09-29T23:44:45.077Z,19.00
2017-09-29T23:47:12.649Z,19.00
2017-09-29T23:49:40.198Z,19.10
2017-09-29T23:52:07.787Z,19.10
2017-09-29T23:54:35.344Z,19.10
2017-09-29T23:57:02.920Z,19.10
2017-09-29T23:59:30.572Z,19.10
